sensor_id;sensor_type;location;lat;lon;timestamp;temperature;humidity
285;DHT22;127;48.770;9.212;2023-02-21T00:01:20;6.30;99.90
285;DHT22;127;48.770;9.212;2023-02-21T00:04:01;6.30;99.90
285;DHT22;127;48.770;9.212;2023-02-21T00:06:43;6.40;99.90
285;DHT22;127;48.770;9.212;2023-02-21T00:09:27;6.40;99.90
285;DHT22;127;48.770;9.212;2023-02-21T00:12:08;6.30;99.90
285;DHT22;127;48.770;9.212;2023-02-21T00:14:49;6.30;99.90
285;DHT22;127;48.770;9.212;2023-02-21T00:17:30;6.40;99.90
285;DHT22;127;48.770;9.212;2023-02-21T00:20:11;6.30;99.90
285;DHT22;127;48.770;9.212;2023-02-21T00:22:52;6.40;99.90
285;DHT22;127;48.770;9.212;2023-02-21T00:25:35;6.30;99.90
285;DHT22;127;48.770;9.212;2023-02-21T00:28:16;6.20;99.90
285;DHT22;127;48.770;9.212;2023-02-21T00:30:57;6.20;99.90
285;DHT22;127;48.770;9.212;2023-02-21T00:33:39;6.20;99.90
285;DHT22;127;48.770;9.212;2023-02-21T00:36:20;6.40;99.90
285;DHT22;127;48.770;9.212;2023-02-21T00:39:01;6.50;99.90
285;DHT22;127;48.770;9.212;2023-02-21T00:41:44;6.50;99.90
285;DHT22;127;48.770;9.212;2023-02-21T00:44:25;6.40;99.90
285;DHT22;127;48.770;9.212;2023-02-21T00:47:06;6.30;99.90
285;DHT22;127;48.770;9.212;2023-02-21T00:49:47;6.30;99.90
285;DHT22;127;48.770;9.212;2023-02-21T00:52:28;6.20;99.90
285;DHT22;127;48.770;9.212;2023-02-21T00:55:09;6.20;99.90
285;DHT22;127;48.770;9.212;2023-02-21T00:57:53;6.20;99.90
285;DHT22;127;48.770;9.212;2023-02-21T01:00:34;6.10;99.90
285;DHT22;127;48.770;9.212;2023-02-21T01:03:15;6.20;99.90
285;DHT22;127;48.770;9.212;2023-02-21T01:05:56;6.30;99.90
285;DHT22;127;48.770;9.212;2023-02-21T01:08:41;6.30;99.90
285;DHT22;127;48.770;9.212;2023-02-21T01:11:22;6.40;99.90
285;DHT22;127;48.770;9.212;2023-02-21T01:14:06;6.30;99.90
285;DHT22;127;48.770;9.212;2023-02-21T01:16:48;6.30;99.90
285;DHT22;127;48.770;9.212;2023-02-21T01:19:29;6.30;99.90
285;DHT22;127;48.770;9.212;2023-02-21T01:22:10;6.30;99.90
285;DHT22;127;48.770;9.212;2023-02-21T01:24:51;6.30;99.90
285;DHT22;127;48.770;9.212;2023-02-21T01:27:32;6.30;99.90
285;DHT22;127;48.770;9.212;2023-02-21T01:30:16;6.30;99.90
285;DHT22;127;48.770;9.212;2023-02-21T01:32:57;6.20;99.90
285;DHT22;127;48.770;9.212;2023-02-21T01:35:38;6.20;99.90
285;DHT22;127;48.770;9.212;2023-02-21T01:38:19;6.20;99.90
285;DHT22;127;48.770;9.212;2023-02-21T01:41:00;6.20;99.90
285;DHT22;127;48.770;9.212;2023-02-21T01:43:56;6.20;99.90
285;DHT22;127;48.770;9.212;2023-02-21T01:46:40;6.20;99.90
285;DHT22;127;48.770;9.212;2023-02-21T01:49:21;6.20;99.90
285;DHT22;127;48.770;9.212;2023-02-21T01:52:03;6.10;99.90
285;DHT22;127;48.770;9.212;2023-02-21T01:54:48;6.00;99.90
285;DHT22;127;48.770;9.212;2023-02-21T01:57:30;6.00;99.90
285;DHT22;127;48.770;9.212;2023-02-21T02:00:13;6.00;99.90
285;DHT22;127;48.770;9.212;2023-02-21T02:02:59;6.00;99.90
285;DHT22;127;48.770;9.212;2023-02-21T02:05:43;6.00;99.90
285;DHT22;127;48.770;9.212;2023-02-21T02:08:27;6.00;99.90
285;DHT22;127;48.770;9.212;2023-02-21T02:11:18;6.00;99.90
285;DHT22;127;48.770;9.212;2023-02-21T02:14:11;6.00;99.90
285;DHT22;127;48.770;9.212;2023-02-21T02:16:46;6.00;99.90
285;DHT22;127;48.770;9.212;2023-02-21T02:19:47;6.00;99.90
285;DHT22;127;48.770;9.212;2023-02-21T02:25:42;6.00;99.90
285;DHT22;127;48.770;9.212;2023-02-21T02:28:41;6.00;99.90
285;DHT22;127;48.770;9.212;2023-02-21T02:31:33;5.90;99.90
285;DHT22;127;48.770;9.212;2023-02-21T02:34:32;5.90;99.90
285;DHT22;127;48.770;9.212;2023-02-21T02:37:11;5.90;99.90
285;DHT22;127;48.770;9.212;2023-02-21T02:39:46;5.80;99.90
285;DHT22;127;48.770;9.212;2023-02-21T02:42:29;5.70;99.90
285;DHT22;127;48.770;9.212;2023-02-21T02:45:05;5.60;99.90
285;DHT22;127;48.770;9.212;2023-02-21T02:47:37;5.60;99.90
285;DHT22;127;48.770;9.212;2023-02-21T02:50:09;5.50;99.90
285;DHT22;127;48.770;9.212;2023-02-21T02:52:49;5.50;99.90
285;DHT22;127;48.770;9.212;2023-02-21T02:55:29;5.50;99.90
285;DHT22;127;48.770;9.212;2023-02-21T02:57:59;5.50;99.90
285;DHT22;127;48.770;9.212;2023-02-21T03:00:30;5.50;99.90
285;DHT22;127;48.770;9.212;2023-02-21T03:06:17;5.40;99.90
285;DHT22;127;48.770;9.212;2023-02-21T03:08:52;5.40;99.90
285;DHT22;127;48.770;9.212;2023-02-21T03:11:24;5.30;99.90
285;DHT22;127;48.770;9.212;2023-02-21T03:13:57;5.30;99.90
285;DHT22;127;48.770;9.212;2023-02-21T03:16:32;5.20;99.90
285;DHT22;127;48.770;9.212;2023-02-21T03:19:04;5.20;99.90
285;DHT22;127;48.770;9.212;2023-02-21T03:21:39;5.20;99.90
285;DHT22;127;48.770;9.212;2023-02-21T03:24:10;5.10;99.90
285;DHT22;127;48.770;9.212;2023-02-21T03:26:43;5.10;99.90
285;DHT22;127;48.770;9.212;2023-02-21T03:29:13;5.10;99.90
285;DHT22;127;48.770;9.212;2023-02-21T03:31:45;5.10;99.90
285;DHT22;127;48.770;9.212;2023-02-21T03:34:15;5.10;99.90
285;DHT22;127;48.770;9.212;2023-02-21T03:36:46;5.10;99.90
285;DHT22;127;48.770;9.212;2023-02-21T03:39:16;5.00;99.90
285;DHT22;127;48.770;9.212;2023-02-21T03:41:44;5.00;99.90
285;DHT22;127;48.770;9.212;2023-02-21T03:44:13;4.90;99.90
285;DHT22;127;48.770;9.212;2023-02-21T03:46:42;5.00;99.90
285;DHT22;127;48.770;9.212;2023-02-21T03:49:11;4.90;99.90
285;DHT22;127;48.770;9.212;2023-02-21T03:51:39;4.90;99.90
285;DHT22;127;48.770;9.212;2023-02-21T03:54:11;4.90;99.90
285;DHT22;127;48.770;9.212;2023-02-21T03:56:39;4.80;99.90
285;DHT22;127;48.770;9.212;2023-02-21T03:59:08;4.90;99.90
285;DHT22;127;48.770;9.212;2023-02-21T04:01:36;4.80;99.90
285;DHT22;127;48.770;9.212;2023-02-21T04:04:05;4.90;99.90
285;DHT22;127;48.770;9.212;2023-02-21T04:06:34;4.80;99.90
285;DHT22;127;48.770;9.212;2023-02-21T04:09:03;4.80;99.90
285;DHT22;127;48.770;9.212;2023-02-21T04:11:34;4.80;99.90
285;DHT22;127;48.770;9.212;2023-02-21T04:14:02;4.80;99.90
285;DHT22;127;48.770;9.212;2023-02-21T04:16:31;4.80;99.90
285;DHT22;127;48.770;9.212;2023-02-21T04:19:00;4.90;99.90
285;DHT22;127;48.770;9.212;2023-02-21T04:21:29;5.00;99.90
285;DHT22;127;48.770;9.212;2023-02-21T04:23:57;5.00;99.90
285;DHT22;127;48.770;9.212;2023-02-21T04:26:26;4.90;99.90
285;DHT22;127;48.770;9.212;2023-02-21T04:28:58;4.90;99.90
285;DHT22;127;48.770;9.212;2023-02-21T04:31:27;4.90;99.90
285;DHT22;127;48.770;9.212;2023-02-21T04:33:56;4.90;99.90
285;DHT22;127;48.770;9.212;2023-02-21T04:36:25;4.90;99.90
285;DHT22;127;48.770;9.212;2023-02-21T04:38:54;4.90;99.90
285;DHT22;127;48.770;9.212;2023-02-21T04:41:23;5.00;99.90
285;DHT22;127;48.770;9.212;2023-02-21T04:43:52;4.90;99.90
285;DHT22;127;48.770;9.212;2023-02-21T04:46:23;4.90;99.90
285;DHT22;127;48.770;9.212;2023-02-21T04:48:52;4.90;99.90
285;DHT22;127;48.770;9.212;2023-02-21T04:51:22;4.90;99.90
285;DHT22;127;48.770;9.212;2023-02-21T04:53:52;4.80;99.90
285;DHT22;127;48.770;9.212;2023-02-21T04:56:23;4.80;99.90
285;DHT22;127;48.770;9.212;2023-02-21T04:58:54;4.70;99.90
285;DHT22;127;48.770;9.212;2023-02-21T05:01:26;4.60;99.90
285;DHT22;127;48.770;9.212;2023-02-21T05:03:56;4.60;99.90
285;DHT22;127;48.770;9.212;2023-02-21T05:06:26;4.60;99.90
285;DHT22;127;48.770;9.212;2023-02-21T05:08:55;4.50;99.90
285;DHT22;127;48.770;9.212;2023-02-21T05:11:24;4.40;99.90
285;DHT22;127;48.770;9.212;2023-02-21T05:13:53;4.40;99.90
285;DHT22;127;48.770;9.212;2023-02-21T05:16:25;4.40;99.90
285;DHT22;127;48.770;9.212;2023-02-21T05:18:53;4.30;99.90
285;DHT22;127;48.770;9.212;2023-02-21T05:21:22;4.30;99.90
285;DHT22;127;48.770;9.212;2023-02-21T05:23:50;4.20;99.90
285;DHT22;127;48.770;9.212;2023-02-21T05:26:27;4.20;99.90
285;DHT22;127;48.770;9.212;2023-02-21T05:29:00;4.20;99.90
285;DHT22;127;48.770;9.212;2023-02-21T05:31:31;4.20;99.90
285;DHT22;127;48.770;9.212;2023-02-21T05:34:00;4.20;99.90
285;DHT22;127;48.770;9.212;2023-02-21T05:36:28;4.20;99.90
285;DHT22;127;48.770;9.212;2023-02-21T05:38:57;4.20;99.90
285;DHT22;127;48.770;9.212;2023-02-21T05:41:26;4.20;99.90
285;DHT22;127;48.770;9.212;2023-02-21T05:43:54;4.20;99.90
285;DHT22;127;48.770;9.212;2023-02-21T05:46:25;4.20;99.90
285;DHT22;127;48.770;9.212;2023-02-21T05:48:58;4.10;99.90
285;DHT22;127;48.770;9.212;2023-02-21T05:51:27;4.10;99.90
285;DHT22;127;48.770;9.212;2023-02-21T05:54:00;4.10;99.90
285;DHT22;127;48.770;9.212;2023-02-21T05:56:29;4.10;99.90
285;DHT22;127;48.770;9.212;2023-02-21T05:58:58;4.00;99.90
285;DHT22;127;48.770;9.212;2023-02-21T06:01:26;4.00;99.90
285;DHT22;127;48.770;9.212;2023-02-21T06:03:58;4.00;99.90
285;DHT22;127;48.770;9.212;2023-02-21T06:06:26;4.00;99.90
285;DHT22;127;48.770;9.212;2023-02-21T06:08:55;4.10;99.90
285;DHT22;127;48.770;9.212;2023-02-21T06:11:26;4.10;99.90
285;DHT22;127;48.770;9.212;2023-02-21T06:13:57;4.10;99.90
285;DHT22;127;48.770;9.212;2023-02-21T06:16:26;4.10;99.90
285;DHT22;127;48.770;9.212;2023-02-21T06:18:58;4.20;99.90
285;DHT22;127;48.770;9.212;2023-02-21T06:21:27;4.20;99.90
285;DHT22;127;48.770;9.212;2023-02-21T06:23:55;4.10;99.90
285;DHT22;127;48.770;9.212;2023-02-21T06:26:25;4.10;99.90
285;DHT22;127;48.770;9.212;2023-02-21T06:28:54;4.10;99.90
285;DHT22;127;48.770;9.212;2023-02-21T06:31:23;4.20;99.90
285;DHT22;127;48.770;9.212;2023-02-21T06:33:51;4.20;99.90
285;DHT22;127;48.770;9.212;2023-02-21T06:36:24;4.20;99.90
285;DHT22;127;48.770;9.212;2023-02-21T06:38:54;4.30;99.90
285;DHT22;127;48.770;9.212;2023-02-21T06:41:26;4.30;99.90
285;DHT22;127;48.770;9.212;2023-02-21T06:43:55;4.30;99.90
285;DHT22;127;48.770;9.212;2023-02-21T06:46:25;4.30;99.90
285;DHT22;127;48.770;9.212;2023-02-21T06:48:54;4.30;99.90
285;DHT22;127;48.770;9.212;2023-02-21T06:51:25;4.30;99.90
285;DHT22;127;48.770;9.212;2023-02-21T06:53:55;4.30;99.90
285;DHT22;127;48.770;9.212;2023-02-21T06:56:23;4.30;99.90
285;DHT22;127;48.770;9.212;2023-02-21T06:58:52;4.20;99.90
285;DHT22;127;48.770;9.212;2023-02-21T07:01:20;4.20;99.90
285;DHT22;127;48.770;9.212;2023-02-21T07:03:50;4.20;99.90
285;DHT22;127;48.770;9.212;2023-02-21T07:06:19;4.20;99.90
285;DHT22;127;48.770;9.212;2023-02-21T07:08:50;4.20;99.90
285;DHT22;127;48.770;9.212;2023-02-21T07:11:19;4.30;99.90
285;DHT22;127;48.770;9.212;2023-02-21T07:13:49;4.20;99.90
285;DHT22;127;48.770;9.212;2023-02-21T07:16:17;4.10;99.90
285;DHT22;127;48.770;9.212;2023-02-21T07:18:46;4.20;99.90
285;DHT22;127;48.770;9.212;2023-02-21T07:21:16;4.20;99.90
285;DHT22;127;48.770;9.212;2023-02-21T07:23:46;4.20;99.90
285;DHT22;127;48.770;9.212;2023-02-21T07:26:17;4.20;99.90
285;DHT22;127;48.770;9.212;2023-02-21T07:28:46;4.20;99.90
285;DHT22;127;48.770;9.212;2023-02-21T07:31:15;4.20;99.90
285;DHT22;127;48.770;9.212;2023-02-21T07:33:45;4.20;99.90
285;DHT22;127;48.770;9.212;2023-02-21T07:36:13;4.30;99.90
285;DHT22;127;48.770;9.212;2023-02-21T07:38:42;4.40;99.90
285;DHT22;127;48.770;9.212;2023-02-21T07:41:12;4.50;99.90
285;DHT22;127;48.770;9.212;2023-02-21T07:43:44;4.60;99.90
285;DHT22;127;48.770;9.212;2023-02-21T07:46:14;4.70;99.90
285;DHT22;127;48.770;9.212;2023-02-21T07:48:44;4.80;99.90
285;DHT22;127;48.770;9.212;2023-02-21T07:51:12;5.00;99.90
285;DHT22;127;48.770;9.212;2023-02-21T07:53:41;5.10;99.90
285;DHT22;127;48.770;9.212;2023-02-21T07:56:10;5.20;99.90
285;DHT22;127;48.770;9.212;2023-02-21T07:58:38;5.20;99.90
285;DHT22;127;48.770;9.212;2023-02-21T08:01:09;5.40;99.90
285;DHT22;127;48.770;9.212;2023-02-21T08:03:38;5.60;99.90
285;DHT22;127;48.770;9.212;2023-02-21T08:06:08;5.80;99.90
285;DHT22;127;48.770;9.212;2023-02-21T08:08:37;6.00;99.90
285;DHT22;127;48.770;9.212;2023-02-21T08:11:06;6.10;99.90
285;DHT22;127;48.770;9.212;2023-02-21T08:13:34;6.10;99.90
285;DHT22;127;48.770;9.212;2023-02-21T08:16:03;6.10;99.90
285;DHT22;127;48.770;9.212;2023-02-21T08:18:34;6.10;99.90
285;DHT22;127;48.770;9.212;2023-02-21T08:21:03;6.20;99.90
285;DHT22;127;48.770;9.212;2023-02-21T08:23:35;7.00;99.90
285;DHT22;127;48.770;9.212;2023-02-21T08:26:04;7.90;99.90
285;DHT22;127;48.770;9.212;2023-02-21T08:28:33;8.30;99.90
285;DHT22;127;48.770;9.212;2023-02-21T08:31:02;8.70;99.90
285;DHT22;127;48.770;9.212;2023-02-21T08:33:30;9.10;99.90
285;DHT22;127;48.770;9.212;2023-02-21T08:36:02;9.20;99.90
285;DHT22;127;48.770;9.212;2023-02-21T08:38:30;9.10;99.90
285;DHT22;127;48.770;9.212;2023-02-21T08:40:59;9.10;99.90
285;DHT22;127;48.770;9.212;2023-02-21T08:43:28;9.20;99.90
285;DHT22;127;48.770;9.212;2023-02-21T08:45:56;9.40;99.90
285;DHT22;127;48.770;9.212;2023-02-21T08:48:25;9.80;99.90
285;DHT22;127;48.770;9.212;2023-02-21T08:50:54;10.20;99.90
285;DHT22;127;48.770;9.212;2023-02-21T08:53:25;10.30;99.90
285;DHT22;127;48.770;9.212;2023-02-21T08:55:54;10.20;99.90
285;DHT22;127;48.770;9.212;2023-02-21T08:58:22;10.10;99.90
285;DHT22;127;48.770;9.212;2023-02-21T09:00:51;10.40;99.90
285;DHT22;127;48.770;9.212;2023-02-21T09:03:19;10.90;99.90
285;DHT22;127;48.770;9.212;2023-02-21T09:05:48;11.10;99.90
285;DHT22;127;48.770;9.212;2023-02-21T09:08:17;11.30;99.90
285;DHT22;127;48.770;9.212;2023-02-21T09:10:58;11.30;99.90
285;DHT22;127;48.770;9.212;2023-02-21T09:13:27;11.20;99.90
285;DHT22;127;48.770;9.212;2023-02-21T09:15:57;11.10;99.90
285;DHT22;127;48.770;9.212;2023-02-21T09:18:27;11.30;99.90
285;DHT22;127;48.770;9.212;2023-02-21T09:20:56;11.90;99.90
285;DHT22;127;48.770;9.212;2023-02-21T09:23:27;12.40;99.90
285;DHT22;127;48.770;9.212;2023-02-21T09:25:59;13.50;99.90
285;DHT22;127;48.770;9.212;2023-02-21T09:28:27;14.30;99.90
285;DHT22;127;48.770;9.212;2023-02-21T09:30:56;15.70;99.90
285;DHT22;127;48.770;9.212;2023-02-21T09:33:25;16.20;99.90
285;DHT22;127;48.770;9.212;2023-02-21T09:35:55;16.70;99.90
285;DHT22;127;48.770;9.212;2023-02-21T09:38:24;18.10;99.90
285;DHT22;127;48.770;9.212;2023-02-21T09:40:55;20.50;99.90
285;DHT22;127;48.770;9.212;2023-02-21T09:43:31;22.30;99.90
285;DHT22;127;48.770;9.212;2023-02-21T09:46:03;22.80;99.90
285;DHT22;127;48.770;9.212;2023-02-21T09:48:32;23.50;99.90
285;DHT22;127;48.770;9.212;2023-02-21T09:51:03;24.90;99.90
285;DHT22;127;48.770;9.212;2023-02-21T09:53:36;25.80;99.90
285;DHT22;127;48.770;9.212;2023-02-21T09:56:07;26.20;99.90
285;DHT22;127;48.770;9.212;2023-02-21T09:58:42;25.70;99.90
285;DHT22;127;48.770;9.212;2023-02-21T10:01:21;25.90;99.90
285;DHT22;127;48.770;9.212;2023-02-21T10:04:00;27.20;99.90
285;DHT22;127;48.770;9.212;2023-02-21T10:06:40;27.00;99.90
285;DHT22;127;48.770;9.212;2023-02-21T10:09:22;26.60;99.90
285;DHT22;127;48.770;9.212;2023-02-21T10:12:01;27.40;99.90
285;DHT22;127;48.770;9.212;2023-02-21T10:14:42;28.00;99.90
285;DHT22;127;48.770;9.212;2023-02-21T10:17:18;28.10;99.90
285;DHT22;127;48.770;9.212;2023-02-21T10:19:51;28.30;99.90
285;DHT22;127;48.770;9.212;2023-02-21T10:22:23;27.10;99.90
285;DHT22;127;48.770;9.212;2023-02-21T10:24:53;26.00;99.90
285;DHT22;127;48.770;9.212;2023-02-21T10:27:25;25.50;99.90
285;DHT22;127;48.770;9.212;2023-02-21T10:30:00;26.40;99.90
285;DHT22;127;48.770;9.212;2023-02-21T10:32:29;27.90;99.90
285;DHT22;127;48.770;9.212;2023-02-21T10:34:58;24.90;99.90
285;DHT22;127;48.770;9.212;2023-02-21T10:37:36;25.10;99.90
285;DHT22;127;48.770;9.212;2023-02-21T10:40:21;25.40;99.90
285;DHT22;127;48.770;9.212;2023-02-21T10:42:53;25.80;99.90
285;DHT22;127;48.770;9.212;2023-02-21T10:45:32;25.70;99.90
285;DHT22;127;48.770;9.212;2023-02-21T10:48:04;26.60;99.90
285;DHT22;127;48.770;9.212;2023-02-21T10:50:39;26.40;99.90
285;DHT22;127;48.770;9.212;2023-02-21T10:53:09;27.10;99.90
285;DHT22;127;48.770;9.212;2023-02-21T10:58:51;25.00;99.90
285;DHT22;127;48.770;9.212;2023-02-21T11:01:32;25.90;99.90
285;DHT22;127;48.770;9.212;2023-02-21T11:04:04;27.50;99.90
285;DHT22;127;48.770;9.212;2023-02-21T11:06:35;28.60;99.90
285;DHT22;127;48.770;9.212;2023-02-21T11:09:34;29.50;99.90
285;DHT22;127;48.770;9.212;2023-02-21T11:12:05;29.30;99.90
285;DHT22;127;48.770;9.212;2023-02-21T11:14:34;28.70;99.90
285;DHT22;127;48.770;9.212;2023-02-21T11:17:12;26.90;99.90
285;DHT22;127;48.770;9.212;2023-02-21T11:19:52;27.90;99.90
285;DHT22;127;48.770;9.212;2023-02-21T11:22:23;28.20;99.90
285;DHT22;127;48.770;9.212;2023-02-21T11:24:59;29.10;99.90
285;DHT22;127;48.770;9.212;2023-02-21T11:27:30;28.10;99.90
285;DHT22;127;48.770;9.212;2023-02-21T11:30:01;28.10;99.90
285;DHT22;127;48.770;9.212;2023-02-21T11:32:36;25.40;99.90
285;DHT22;127;48.770;9.212;2023-02-21T11:35:19;25.90;99.90
285;DHT22;127;48.770;9.212;2023-02-21T11:37:52;26.80;99.90
285;DHT22;127;48.770;9.212;2023-02-21T11:40:27;27.30;99.90
285;DHT22;127;48.770;9.212;2023-02-21T11:43:18;27.90;99.90
285;DHT22;127;48.770;9.212;2023-02-21T11:45:58;28.70;99.90
285;DHT22;127;48.770;9.212;2023-02-21T11:48:33;29.50;99.90
285;DHT22;127;48.770;9.212;2023-02-21T11:51:05;29.70;99.90
285;DHT22;127;48.770;9.212;2023-02-21T11:53:39;29.50;99.90
285;DHT22;127;48.770;9.212;2023-02-21T11:56:23;29.00;99.90
285;DHT22;127;48.770;9.212;2023-02-21T11:58:58;29.40;99.90
285;DHT22;127;48.770;9.212;2023-02-21T12:01:32;28.80;99.90
285;DHT22;127;48.770;9.212;2023-02-21T12:04:18;28.70;99.90
285;DHT22;127;48.770;9.212;2023-02-21T12:06:56;27.70;99.90
285;DHT22;127;48.770;9.212;2023-02-21T12:09:34;26.50;99.90
285;DHT22;127;48.770;9.212;2023-02-21T12:12:19;25.50;99.90
285;DHT22;127;48.770;9.212;2023-02-21T12:15:11;25.60;99.90
285;DHT22;127;48.770;9.212;2023-02-21T12:18:06;26.70;99.90
285;DHT22;127;48.770;9.212;2023-02-21T12:20:59;28.70;99.90
285;DHT22;127;48.770;9.212;2023-02-21T12:23:37;29.30;99.90
285;DHT22;127;48.770;9.212;2023-02-21T12:26:17;29.20;99.90
285;DHT22;127;48.770;9.212;2023-02-21T12:28:57;30.00;99.90
285;DHT22;127;48.770;9.212;2023-02-21T12:31:36;29.40;99.90
285;DHT22;127;48.770;9.212;2023-02-21T12:34:16;29.50;99.90
285;DHT22;127;48.770;9.212;2023-02-21T12:37:07;30.40;99.90
285;DHT22;127;48.770;9.212;2023-02-21T12:39:53;29.90;99.90
285;DHT22;127;48.770;9.212;2023-02-21T12:45:48;29.80;99.90
285;DHT22;127;48.770;9.212;2023-02-21T12:48:29;30.10;99.90
285;DHT22;127;48.770;9.212;2023-02-21T12:51:02;30.20;99.90
285;DHT22;127;48.770;9.212;2023-02-21T12:53:38;28.90;99.90
285;DHT22;127;48.770;9.212;2023-02-21T12:56:11;28.70;99.90
285;DHT22;127;48.770;9.212;2023-02-21T12:58:47;30.00;99.90
285;DHT22;127;48.770;9.212;2023-02-21T13:01:20;30.10;99.90
285;DHT22;127;48.770;9.212;2023-02-21T13:03:57;30.30;99.90
285;DHT22;127;48.770;9.212;2023-02-21T13:06:33;29.10;99.90
285;DHT22;127;48.770;9.212;2023-02-21T13:09:16;30.30;99.90
285;DHT22;127;48.770;9.212;2023-02-21T13:11:53;30.50;99.90
285;DHT22;127;48.770;9.212;2023-02-21T13:14:27;30.00;99.90
285;DHT22;127;48.770;9.212;2023-02-21T13:16:58;30.00;99.90
285;DHT22;127;48.770;9.212;2023-02-21T13:19:34;31.50;99.90
285;DHT22;127;48.770;9.212;2023-02-21T13:25:14;30.50;99.90
285;DHT22;127;48.770;9.212;2023-02-21T13:27:53;30.50;99.90
285;DHT22;127;48.770;9.212;2023-02-21T13:30:26;29.80;99.90
285;DHT22;127;48.770;9.212;2023-02-21T13:32:58;26.80;99.90
285;DHT22;127;48.770;9.212;2023-02-21T13:35:30;28.00;99.90
285;DHT22;127;48.770;9.212;2023-02-21T13:38:01;29.60;99.90
285;DHT22;127;48.770;9.212;2023-02-21T13:40:36;29.20;99.90
285;DHT22;127;48.770;9.212;2023-02-21T13:43:11;29.10;99.90
285;DHT22;127;48.770;9.212;2023-02-21T13:45:40;29.80;99.90
285;DHT22;127;48.770;9.212;2023-02-21T13:48:22;29.10;99.90
285;DHT22;127;48.770;9.212;2023-02-21T13:50:52;29.80;99.90
285;DHT22;127;48.770;9.212;2023-02-21T13:53:23;29.40;99.90
285;DHT22;127;48.770;9.212;2023-02-21T13:56:18;30.60;99.90
285;DHT22;127;48.770;9.212;2023-02-21T13:58:48;31.30;99.90
285;DHT22;127;48.770;9.212;2023-02-21T14:01:20;31.50;99.90
285;DHT22;127;48.770;9.212;2023-02-21T14:03:50;29.40;99.90
285;DHT22;127;48.770;9.212;2023-02-21T14:06:33;26.80;99.90
285;DHT22;127;48.770;9.212;2023-02-21T14:09:06;28.40;99.90
285;DHT22;127;48.770;9.212;2023-02-21T14:11:45;28.30;99.90
285;DHT22;127;48.770;9.212;2023-02-21T14:14:22;27.80;99.90
285;DHT22;127;48.770;9.212;2023-02-21T14:16:56;27.60;99.90
285;DHT22;127;48.770;9.212;2023-02-21T14:19:31;27.50;99.90
285;DHT22;127;48.770;9.212;2023-02-21T14:22:07;27.90;99.90
285;DHT22;127;48.770;9.212;2023-02-21T14:24:39;28.20;99.90
285;DHT22;127;48.770;9.212;2023-02-21T14:27:34;28.20;99.90
285;DHT22;127;48.770;9.212;2023-02-21T14:30:28;28.70;99.90
285;DHT22;127;48.770;9.212;2023-02-21T14:35:50;29.70;99.90
285;DHT22;127;48.770;9.212;2023-02-21T14:38:23;27.40;99.90
285;DHT22;127;48.770;9.212;2023-02-21T14:41:01;27.60;99.90
285;DHT22;127;48.770;9.212;2023-02-21T14:43:55;28.80;99.90
285;DHT22;127;48.770;9.212;2023-02-21T14:52:41;27.80;99.90
285;DHT22;127;48.770;9.212;2023-02-21T14:55:30;27.70;99.90
285;DHT22;127;48.770;9.212;2023-02-21T15:01:12;28.10;99.90
285;DHT22;127;48.770;9.212;2023-02-21T15:03:47;27.30;99.90
285;DHT22;127;48.770;9.212;2023-02-21T15:06:19;27.70;99.90
285;DHT22;127;48.770;9.212;2023-02-21T15:08:51;27.90;99.90
285;DHT22;127;48.770;9.212;2023-02-21T15:11:23;28.30;99.90
285;DHT22;127;48.770;9.212;2023-02-21T15:14:12;28.30;99.90
285;DHT22;127;48.770;9.212;2023-02-21T15:16:51;27.90;99.90
285;DHT22;127;48.770;9.212;2023-02-21T15:19:25;27.90;99.90
285;DHT22;127;48.770;9.212;2023-02-21T15:22:15;28.10;99.90
285;DHT22;127;48.770;9.212;2023-02-21T15:25:10;28.10;99.90
285;DHT22;127;48.770;9.212;2023-02-21T15:27:53;28.10;99.90
285;DHT22;127;48.770;9.212;2023-02-21T15:30:24;28.30;99.90
285;DHT22;127;48.770;9.212;2023-02-21T15:32:59;28.40;99.90
285;DHT22;127;48.770;9.212;2023-02-21T15:35:32;27.70;99.90
285;DHT22;127;48.770;9.212;2023-02-21T15:38:04;27.00;99.90
285;DHT22;127;48.770;9.212;2023-02-21T15:40:35;26.40;99.90
285;DHT22;127;48.770;9.212;2023-02-21T15:43:05;26.50;99.90
285;DHT22;127;48.770;9.212;2023-02-21T15:45:41;26.70;99.90
285;DHT22;127;48.770;9.212;2023-02-21T15:48:14;26.30;99.90
285;DHT22;127;48.770;9.212;2023-02-21T15:50:44;26.10;99.90
285;DHT22;127;48.770;9.212;2023-02-21T15:53:17;26.00;99.90
285;DHT22;127;48.770;9.212;2023-02-21T15:55:47;26.10;99.90
285;DHT22;127;48.770;9.212;2023-02-21T15:58:19;25.70;99.90
285;DHT22;127;48.770;9.212;2023-02-21T16:01:01;24.50;99.90
285;DHT22;127;48.770;9.212;2023-02-21T16:03:37;24.00;99.90
285;DHT22;127;48.770;9.212;2023-02-21T16:06:21;23.50;99.90
285;DHT22;127;48.770;9.212;2023-02-21T16:09:17;23.60;99.90
285;DHT22;127;48.770;9.212;2023-02-21T16:11:50;23.00;99.90
285;DHT22;127;48.770;9.212;2023-02-21T16:14:23;22.10;99.90
285;DHT22;127;48.770;9.212;2023-02-21T16:17:03;21.70;99.90
285;DHT22;127;48.770;9.212;2023-02-21T16:19:36;21.50;99.90
285;DHT22;127;48.770;9.212;2023-02-21T16:22:12;20.90;99.90
285;DHT22;127;48.770;9.212;2023-02-21T16:24:41;20.40;99.90
285;DHT22;127;48.770;9.212;2023-02-21T16:27:12;20.00;99.90
285;DHT22;127;48.770;9.212;2023-02-21T16:29:41;19.60;99.90
285;DHT22;127;48.770;9.212;2023-02-21T16:32:16;19.10;99.90
285;DHT22;127;48.770;9.212;2023-02-21T16:34:49;18.30;99.90
285;DHT22;127;48.770;9.212;2023-02-21T16:37:20;17.90;99.90
285;DHT22;127;48.770;9.212;2023-02-21T16:39:50;17.80;99.90
285;DHT22;127;48.770;9.212;2023-02-21T16:42:18;17.50;99.90
285;DHT22;127;48.770;9.212;2023-02-21T16:44:47;17.00;99.90
285;DHT22;127;48.770;9.212;2023-02-21T16:47:16;16.70;99.90
285;DHT22;127;48.770;9.212;2023-02-21T16:49:48;16.50;99.90
285;DHT22;127;48.770;9.212;2023-02-21T16:52:16;16.40;99.90
285;DHT22;127;48.770;9.212;2023-02-21T16:54:45;16.20;99.90
285;DHT22;127;48.770;9.212;2023-02-21T16:57:14;15.90;99.90
285;DHT22;127;48.770;9.212;2023-02-21T16:59:42;15.70;99.90
285;DHT22;127;48.770;9.212;2023-02-21T17:02:13;15.60;99.90
285;DHT22;127;48.770;9.212;2023-02-21T17:04:41;15.30;99.90
285;DHT22;127;48.770;9.212;2023-02-21T17:07:12;15.00;99.90
285;DHT22;127;48.770;9.212;2023-02-21T17:09:41;14.80;99.90
285;DHT22;127;48.770;9.212;2023-02-21T17:12:11;14.60;99.90
285;DHT22;127;48.770;9.212;2023-02-21T17:14:40;14.50;99.90
285;DHT22;127;48.770;9.212;2023-02-21T17:17:09;14.30;99.90
285;DHT22;127;48.770;9.212;2023-02-21T17:19:37;14.10;99.90
285;DHT22;127;48.770;9.212;2023-02-21T17:22:06;13.90;99.90
285;DHT22;127;48.770;9.212;2023-02-21T17:24:37;13.80;99.90
285;DHT22;127;48.770;9.212;2023-02-21T17:27:06;13.70;99.90
285;DHT22;127;48.770;9.212;2023-02-21T17:29:34;13.50;99.90
285;DHT22;127;48.770;9.212;2023-02-21T17:32:03;13.40;99.90
285;DHT22;127;48.770;9.212;2023-02-21T17:34:34;13.30;99.90
285;DHT22;127;48.770;9.212;2023-02-21T17:37:03;13.10;99.90
285;DHT22;127;48.770;9.212;2023-02-21T17:39:36;13.10;99.90
285;DHT22;127;48.770;9.212;2023-02-21T17:42:06;12.90;99.90
285;DHT22;127;48.770;9.212;2023-02-21T17:44:35;12.80;99.90
285;DHT22;127;48.770;9.212;2023-02-21T17:47:04;12.80;99.90
285;DHT22;127;48.770;9.212;2023-02-21T17:49:33;12.70;99.90
285;DHT22;127;48.770;9.212;2023-02-21T17:52:02;12.50;99.90
285;DHT22;127;48.770;9.212;2023-02-21T17:54:30;12.50;99.90
285;DHT22;127;48.770;9.212;2023-02-21T17:57:02;12.40;99.90
285;DHT22;127;48.770;9.212;2023-02-21T17:59:31;12.30;99.90